Impacts TAF Board INFO
FOR SITUATIONAL AWARENESS. NOT TO BE USED FOR FLIGHT PLANNING PURPOSES.
IDs:

KBWI - Baltimore-Washington, MD, US

Issued at 1720 UTC 21 Jun 2018
Updated at 1946 UTC 21 Jun 2018
Potential Impact None Slight Moderate High
Time1854Z 21/20Z 21/21Z 21/22Z 21/23Z 22/00Z 22/01Z 22/02Z 22/03Z 22/04Z 22/05Z 22/06Z 22/07Z 22/08Z>>
Type OBS PRVL PRVL PRVL PRVL PRVL PRVL PRVL PRVL PRVL PRVL PRVL PRVL PRVL
VIS 10 >6 >6 >6 >6 >6 >6 >6 >6 >6 >6 >6 >6 6
CIG 33 130 130 130 130 130 130 130 130 50 50 50 50 25
Cover BKN OVC OVC OVC OVC OVC OVC OVC OVC OVC OVC OVC OVC OVC
FltCat VFR VFR VFR VFR VFR VFR VFR VFR VFR VFR VFR VFR VFR MVFR
WX -- -- -- -- -- -- -- -- -- VCSH VCSH VCSH VCSH -SHRA
WDir 310 80 80 80 80 80 80 80 80 100 100 100 100 100
WSpd 5 7 7 7 7 7 7 7 7 8 8 8 8 8
WGst -- -- -- -- -- -- -- -- -- -- -- -- -- --

Raw TAF
KBWI 211720Z 2118/2224 05007KT P6SM BKN025 BKN200
  FM212000 08007KT P6SM SCT040 OVC130
  FM220400 10008KT P6SM VCSH BKN050 OVC200
  FM220800 10008KT 6SM -SHRA BKN025 OVC050
  FM221200 09010G18KT 6SM -RA BKN015 OVC050


Raw METAR
KBWI 211854Z 31005KT 10SM FEW019 BKN033 BKN070 27/21 A2978 RMK AO2 SLP083 T02670206
KBWI 211819Z 33005KT 10SM FEW019 SCT028 BKN070 27/20 A2978 RMK AO2 T02670200
KBWI 211754Z 36006KT 10SM SCT017 BKN029 26/21 A2979 RMK AO2 SLP085 60000 T02610206 10261 20222 58002
KBWI 211654Z 03003KT 8SM FEW013 OVC017 24/20 A2980 RMK AO2 SLP089 T02440200

METAR Board
Radar Display
Forecast Discussion

FOR SITUATIONAL AWARENESS. NOT TO BE USED FOR FLIGHT PLANNING PURPOSES.